עמוד ראשי
METAR-TAF:

METAR-TAF

שדות תעופה :

Angoon, אלסקה, ארצות הברית

קו רוחב: 57-30N, קו אורך: 134-35W, גובה: 0מטר

תצפית מזג אוויר נוכחית

הדו"ח נערך לפני 41דקות, בשעה 18:56 UTC
רוח 3קשר מכיוון צפון/צפון-מערב
טמפרטורת 11 צלסיוס
לחות 87%
לחץ 1019 hPa
ראות: 16.1קילומטר
מעונן בגובה 1800רגל

METAR: PAGN 171856Z AUTO 33003KT 10SM OVC018 11/09 A3008 RMK AO2 SLP175 T01110089

זמן: 11:37 (19:37 UTC)


TAF: חסר

תצפיות ותחזיות מזג אוויר לגבי יותר מ- 4,000 שדות תעופה ברחבי העולם. דוחות METAR ו- TAF.

התחנות הזמינות מסומנות בנקודות צהובות ואדומות על גבי המפה.

העבר את העכבר לנקודה הצבעונית על מנת לראות את שם התחנה.

לאחר מכן, לחץ כדי לראות את תוכן ואת תחזיות מזג האוויר.

כדי לשנות את המפה: לחץ על הכפתורים הירוקים עם הפלוס השחור כדי להתקרב; על הכפתור הירוק עם המקף כדי להתרחק; או בחיצים הירוקים למפות סמוכות.


METAR-TAF: